AirNav   Everest Fuels
 
 902 users online  

XS43 Medina River Ranch Airport
Pipe Creek, Texas, USA

GOING TO PIPE CREEK?


FAA INFORMATION EFFECTIVE 07 NOVEMBER 2019

Location

FAA Identifier: XS43
Lat/Long: 29-39-41.8130N 098-57-23.1120W
29-39.696883N 098-57.385200W
29.6616147,-98.9564200
(estimated)
Elevation: 1216 ft. / 371 m (estimated)
Variation: 07E (1985)
From city: 5 miles S of PIPE CREEK, TX
Time zone: UTC -6 (UTC -5 during Daylight Saving Time)
Zip code: 78063

Airport Operations

Airport use: Private use. Permission required prior to landing
Activation date: 06/1971
Control tower: no
ARTCC: HOUSTON CENTER
FSS: SAN ANGELO FLIGHT SERVICE STATION
Attendance: UNATNDD
Wind indicator: yes
Segmented circle: no

Airport Communications

WX AWOS-3 at 5C1 (14 nm E): 118.725 (830-755-9099)
WX AWOS-3 at CVB (20 nm S): 119.25 (830-931-0232)

Nearby radio navigation aids

VOR radial/distance  VOR name  Freq  Var
CSIr131/20.6CENTER POINT VORTAC117.5008E
SATr264/25.8SAN ANTONIO VORTAC116.8008E
STVr194/35.2STONEWALL VORTAC113.8008E
RNDr279/36.0RANDOLPH VORTAC112.3005E
SSFr303/(36.1)STINSON VOR108.4009E

 
NDB name  Hdg/Dist  Freq  Var  ID
HONDO025/20.632908EHMA .... -- .-
DEVINE351/31.435907EHHH .... .... ....

Airport Services

Airframe service: NONE
Powerplant service: NONE

Runway Information

Runway 16/34

Dimensions: 2000 x 100 ft. / 610 x 30 m
Surface: turf
RUNWAY 16  RUNWAY 34
Traffic pattern: leftleft

Runway 10/28

Dimensions: 1600 x 100 ft. / 488 x 30 m
Surface: turf
RUNWAY 10  RUNWAY 28
Traffic pattern: leftleft
Obstructions: nonehill, 7800 ft. from runway

Runway 14/32

Dimensions: 1600 x 100 ft. / 488 x 30 m
Surface: turf
RUNWAY 14  RUNWAY 32
Traffic pattern: leftleft

Airport Ownership and Management from official FAA records

Ownership: Privately-owned
Owner: WELDON G CRESSMAN
4900 FM 1283
PIPE CREEK, TX 78063-5911
Phone 830-510-4020
Manager: WELDON G CRESSMAN
4900 FM 1283
PIPE CREEK, TX 78063-5911
Phone 830-510-4020

Airport Operational Statistics

Aircraft based on the field: 5
Single engine airplanes: 5
    

Additional Remarks

FOR CD CTC SAN ANTONIO APCH AT 210-805-5516.

Instrument Procedures

There are no published instrument procedures at XS43.

Some nearby airports with instrument procedures:

5C1 - Boerne Stage Field Airport (14 nm E)
KCVB - Castroville Municipal Airport (20 nm S)
KERV - Kerrville Municipal Airport/Louis Schreiner Field (20 nm N)
KHDO - South Texas Regional Airport at Hondo (22 nm SW)
KSKF - Kelly Field Airport (26 nm SE)
 
Loc | Ops | Rwys | IFR | FBO | Links
Com | Nav | Svcs | Stats | Notes
Area around XS43 (Medina River Ranch Airport)
 
Road maps at: MapQuest Bing Google
 
Aerial photo
WARNING: Photo may not be current or correct
Aerial photo of XS43 (Medina River Ranch Airport)
Do you have a better or more recent aerial photo of Medina River Ranch Airport that you would like to share? If so, please send us your photo.

 
Sectional chart

 
Airport distance calculator
Flying to Medina River Ranch Airport? Find the distance to fly.

From to XS43

Sunrise and sunset
Times for 21-Nov-2019
 Local
(UTC-6)
 Zulu
(UTC)
Morning civil twilight06:4112:41
Sunrise07:0613:06
Sunset17:3723:37
Evening civil twilight18:0300:03

Current date and time
Zulu (UTC)  22-Nov-2019 03:09:23
Local (UTC-6)  21-Nov-2019 21:09:23
 
METAR
K5C1 
14nm E 
220255Z AUTO 00000KT 10SM SCT022 BKN036 20/18 A2995 RMK AO1
KCVB 
20nm S 
220255Z AUTO 12005KT 10SM OVC039 23/17 A2994 RMK AO2 T02300171
KERV 
20nm N 
220255Z AUTO 00000KT 10SM BKN034 17/15 A2994 RMK AO2 T01700150
KHDO 
21nm SW 
220251Z AUTO 13011KT 10SM OVC039 23/18 A2991 RMK AO2 SLP117 T02280183 53013
KSAT 
27nm E 
220251Z 14008KT 10SM FEW028 OVC043 23/18 A2993 RMK AO2 SLP118 T02280183 51014
KSKF 
27nm SE 
220256Z AUTO 13010KT 10SM BKN043 23/19 A2991 RMK AO2 SLP123 T02320189 52015 $
TAF
KSAT 
27nm E 
211740Z 2118/2224 16007KT P6SM BKN022 OVC035 FM211900 15011KT P6SM BKN035 FM220300 15009KT P6SM BKN015 FM220900 17006KT 6SM BR OVC007 FM221200 17004KT 5SM BR VCSH OVC004 FM221600 36009KT P6SM VCSH OVC011 FM222100 35012KT P6SM OVC025
KSKF 
27nm SE 
220200Z 2202/2308 13009KT 9999 BKN030 BKN250 QNH2990INS BECMG 2205/2206 14006KT 9999 BKN020 QNH2988INS TEMPO 2206/2210 BKN015 BECMG 2209/2210 18005KT 9000 BR BKN009 QNH2989INS BECMG 2213/2214 VRB05KT 4800 -SHRA BR VCTS BKN007 BKN040CB QNH2995INS TEMPO 2213/2215 BKN005 BECMG 2216/2217 36010G15KT 9999 NSW BKN015 510112 QNH2994INS BECMG 2218/2219 01010G15KT 9999 SCT040 SCT250 QNH2991INS TX24/2202Z TN15/2302Z
KSSF 
32nm SE 
211740Z 2118/2218 17008KT P6SM BKN023 OVC028 FM211900 15011KT P6SM BKN035 FM220400 15007KT P6SM BKN015 FM220900 14005KT 6SM BR VCSH OVC007 FM221600 02008KT P6SM VCSH OVC012
NOTAMs
Click for the latest NOTAMs
NOTAMs are issued by the DoD/FAA and will open in a separate window not controlled by AirNav.

 

 
 

Would you like to see your business listed on this page?

 If your business provides an interesting product or service to pilots, flight crews, aircraft, or users of the Medina River Ranch Airport, you should consider listing it here.  To start the listing process, click on the button below
 
Add a business
 

Other Pages about Medina River Ranch Airport

Update a link
 
Copyright © AirNav, LLC. All rights reserved. Privacy Policy  Contact